Terminal Aerodrome Forecast
Issued by NWS Charleston, WV

Current Version | Previous Version | Graphics & Text | Print | Product List | Glossary On
Versions: 1 2 3 4 5 6 7 8 9 10 11 12 13 14 15 16 17 18 19 20 21 22 23 24 25 26 27 28
000
FTUS41 KRLX 300800 AAA
TAFHTS
TAF AMD
KHTS 300839Z 3009/3106 00000KT 3SM BR VV001
      TEMPO 3009/3012 1/2SM FG
     FM301200 00000KT 2SM BR FEW045
     FM301300 VRB03KT 3SM BR SCT050
     FM301400 27005KT P6SM SCT090
     FM310000 VRB03KT P6SM SCT060=

USA.gov is the U.S. government's official web portal to all federal, state and local government web resources and services.